Portada
METAR-TAF:

METAR-TAF

Aeropuertos :

Aeropuerto de Rodez-Aveyron

Rodez, Francia

latitud: 44-24N, longitud: 002-29E, altitud: 581 m

Observación

El informe se hizo hace 42 minutos, a las 08:00 UTC
Viento 11 kt del este
Temperatura 6°C
Humedad 56%
Presión 1015 hPa
Visibilidad 10 km o más
sin nubes por debajo de 1500 m y sin presencia de cumulonimbus.

METAR: LFCR 180800Z AUTO 10011KT CAVOK 06/M02 Q1015 BECMG 12015G25KT

Hora: 09:42 (08:42 UTC)

Pronóstico

El informe se hizo hace 3 horas y 42 minutos, a las 05:00 UTC
Pronóstico válido del 18 a las 06 UTC al 19 a las 06 UTC
Viento 15 kt del este-sureste con ráfagas de 25 kt
Visibilidad 10 km o más
sin nubes por debajo de 1500 m y sin presencia de cumulonimbus.
Evolucionando progresivamente
del 18 a las 13 UTC al 18 a las 15 UTC
Viento 12 kt del este-sureste

TAF: LFCR 180500Z 1806/1906 12015G25KT CAVOK BECMG 1813/1815 12012KT

Observaciones y pronósticos meteorológicos de más de 4000 aeropuertos (mensajes METAR y TAF).

Los puntos amarillos y rojos representan las estaciones disponibles.

Ponga el ratón en el punto deseado para ver el nombre de la estación.

Haga clic para ver las observaciones y los pronósticos meteorológicos.

Para cambiar el mapa : haga clic en los botones verdes con una cruz de color negro para hacer un zoom, en el botón verde con un guión para alejar o en las flechas verdes para mapas adyacentes.


METAR-TAF: